sensor_id;sensor_type;location;lat;lon;timestamp;pressure;altitude;pressure_sealevel;temperature;humidity
77855;BME280;67046;50.088;14.336;2023-04-25T00:00:00;96794.03;;;8.67;66.82
77855;BME280;67046;50.088;14.336;2023-04-25T00:00:31;96787.30;;;8.64;66.97
77855;BME280;67046;50.088;14.336;2023-04-25T00:01:25;96792.95;;;8.62;66.86
77855;BME280;67046;50.088;14.336;2023-04-25T00:01:58;96790.03;;;8.60;66.59
77855;BME280;67046;50.088;14.336;2023-04-25T00:02:30;96796.52;;;8.60;66.60
77855;BME280;67046;50.088;14.336;2023-04-25T00:03:03;96791.77;;;8.60;66.40
77855;BME280;67046;50.088;14.336;2023-04-25T00:03:36;96791.29;;;8.60;66.70
77855;BME280;67046;50.088;14.336;2023-04-25T00:04:09;96793.44;;;8.59;66.61
77855;BME280;67046;50.088;14.336;2023-04-25T00:04:40;96791.00;;;8.59;66.66
77855;BME280;67046;50.088;14.336;2023-04-25T00:05:12;96794.75;;;8.59;66.55
77855;BME280;67046;50.088;14.336;2023-04-25T00:05:45;96795.96;;;8.59;66.45
77855;BME280;67046;50.088;14.336;2023-04-25T00:06:17;96796.64;;;8.59;66.64
77855;BME280;67046;50.088;14.336;2023-04-25T00:06:51;96795.39;;;8.58;66.72
77855;BME280;67046;50.088;14.336;2023-04-25T00:07:24;96797.90;;;8.58;66.72
77855;BME280;67046;50.088;14.336;2023-04-25T00:07:57;96792.58;;;8.57;66.61
77855;BME280;67046;50.088;14.336;2023-04-25T00:08:29;96795.67;;;8.57;66.47
77855;BME280;67046;50.088;14.336;2023-04-25T00:09:02;96796.56;;;8.55;66.59
77855;BME280;67046;50.088;14.336;2023-04-25T00:09:34;96795.50;;;8.55;66.62
77855;BME280;67046;50.088;14.336;2023-04-25T00:10:06;96793.16;;;8.55;66.48
77855;BME280;67046;50.088;14.336;2023-04-25T00:10:38;96796.48;;;8.55;66.64
77855;BME280;67046;50.088;14.336;2023-04-25T00:11:09;96797.04;;;8.52;66.55
77855;BME280;67046;50.088;14.336;2023-04-25T00:11:41;96796.86;;;8.51;66.61
77855;BME280;67046;50.088;14.336;2023-04-25T00:12:12;96796.03;;;8.52;66.44
77855;BME280;67046;50.088;14.336;2023-04-25T00:12:43;96797.66;;;8.52;66.42
77855;BME280;67046;50.088;14.336;2023-04-25T00:13:15;96799.08;;;8.52;66.76
77855;BME280;67046;50.088;14.336;2023-04-25T00:13:48;96797.16;;;8.50;66.54
77855;BME280;67046;50.088;14.336;2023-04-25T00:14:21;96797.38;;;8.50;66.67
77855;BME280;67046;50.088;14.336;2023-04-25T00:14:54;96793.22;;;8.50;66.59
77855;BME280;67046;50.088;14.336;2023-04-25T00:15:28;96790.55;;;8.49;66.46
77855;BME280;67046;50.088;14.336;2023-04-25T00:16:01;96796.36;;;8.49;66.71
77855;BME280;67046;50.088;14.336;2023-04-25T00:16:33;96793.17;;;8.48;66.55
77855;BME280;67046;50.088;14.336;2023-04-25T00:17:05;96791.27;;;8.48;66.94
77855;BME280;67046;50.088;14.336;2023-04-25T00:17:37;96795.52;;;8.46;67.09
77855;BME280;67046;50.088;14.336;2023-04-25T00:18:09;96795.13;;;8.45;66.67
77855;BME280;67046;50.088;14.336;2023-04-25T00:18:41;96790.83;;;8.42;66.95
77855;BME280;67046;50.088;14.336;2023-04-25T00:19:12;96790.41;;;8.42;66.85
77855;BME280;67046;50.088;14.336;2023-04-25T00:19:44;96792.51;;;8.42;66.85
77855;BME280;67046;50.088;14.336;2023-04-25T00:20:17;96799.50;;;8.44;66.98
77855;BME280;67046;50.088;14.336;2023-04-25T00:20:48;96796.86;;;8.44;66.67
77855;BME280;67046;50.088;14.336;2023-04-25T00:21:20;96792.52;;;8.43;66.86
77855;BME280;67046;50.088;14.336;2023-04-25T00:21:52;96795.16;;;8.43;66.79
77855;BME280;67046;50.088;14.336;2023-04-25T00:22:24;96796.49;;;8.40;66.82
77855;BME280;67046;50.088;14.336;2023-04-25T00:22:55;96795.59;;;8.40;67.16
77855;BME280;67046;50.088;14.336;2023-04-25T00:23:27;96794.69;;;8.39;66.86
77855;BME280;67046;50.088;14.336;2023-04-25T00:23:59;96794.42;;;8.39;66.80
77855;BME280;67046;50.088;14.336;2023-04-25T00:24:31;96794.52;;;8.39;66.85
77855;BME280;67046;50.088;14.336;2023-04-25T00:25:06;96792.90;;;8.39;66.94
77855;BME280;67046;50.088;14.336;2023-04-25T00:25:38;96794.00;;;8.40;66.78
77855;BME280;67046;50.088;14.336;2023-04-25T00:26:09;96794.80;;;8.39;66.78
77855;BME280;67046;50.088;14.336;2023-04-25T00:26:40;96791.59;;;8.39;66.73
77855;BME280;67046;50.088;14.336;2023-04-25T00:27:12;96791.27;;;8.39;66.72
77855;BME280;67046;50.088;14.336;2023-04-25T00:27:43;96787.52;;;8.39;67.07
77855;BME280;67046;50.088;14.336;2023-04-25T00:28:15;96794.39;;;8.37;67.13
77855;BME280;67046;50.088;14.336;2023-04-25T00:28:47;96796.33;;;8.37;67.02
77855;BME280;67046;50.088;14.336;2023-04-25T00:29:18;96791.77;;;8.35;66.72
77855;BME280;67046;50.088;14.336;2023-04-25T00:29:50;96791.00;;;8.32;67.13
77855;BME280;67046;50.088;14.336;2023-04-25T00:30:21;96791.88;;;8.31;67.06
77855;BME280;67046;50.088;14.336;2023-04-25T00:30:53;96792.77;;;8.30;67.27
77855;BME280;67046;50.088;14.336;2023-04-25T00:31:24;96785.72;;;8.29;67.08
77855;BME280;67046;50.088;14.336;2023-04-25T00:31:55;96787.17;;;8.30;67.11
77855;BME280;67046;50.088;14.336;2023-04-25T00:32:27;96790.79;;;8.29;67.06
77855;BME280;67046;50.088;14.336;2023-04-25T00:32:58;96791.48;;;8.29;67.09
77855;BME280;67046;50.088;14.336;2023-04-25T00:33:29;96790.98;;;8.28;67.24
77855;BME280;67046;50.088;14.336;2023-04-25T00:34:01;96786.53;;;8.27;67.28
77855;BME280;67046;50.088;14.336;2023-04-25T00:34:32;96786.04;;;8.27;66.87
77855;BME280;67046;50.088;14.336;2023-04-25T00:35:04;96789.45;;;8.26;67.16
77855;BME280;67046;50.088;14.336;2023-04-25T00:35:35;96786.19;;;8.26;67.33
77855;BME280;67046;50.088;14.336;2023-04-25T00:36:07;96785.75;;;8.25;67.33
77855;BME280;67046;50.088;14.336;2023-04-25T00:36:39;96788.86;;;8.25;67.51
77855;BME280;67046;50.088;14.336;2023-04-25T00:37:11;96789.73;;;8.24;67.22
77855;BME280;67046;50.088;14.336;2023-04-25T00:37:42;96786.81;;;8.23;67.45
77855;BME280;67046;50.088;14.336;2023-04-25T00:38:14;96788.48;;;8.21;67.27
77855;BME280;67046;50.088;14.336;2023-04-25T00:38:46;96787.95;;;8.20;67.58
77855;BME280;67046;50.088;14.336;2023-04-25T00:39:17;96792.63;;;8.20;67.47
77855;BME280;67046;50.088;14.336;2023-04-25T00:39:48;96787.90;;;8.17;67.09
77855;BME280;67046;50.088;14.336;2023-04-25T00:40:20;96787.98;;;8.15;67.22
77855;BME280;67046;50.088;14.336;2023-04-25T00:40:52;96788.27;;;8.14;67.62
77855;BME280;67046;50.088;14.336;2023-04-25T00:41:25;96789.42;;;8.14;67.60
77855;BME280;67046;50.088;14.336;2023-04-25T00:41:58;96785.20;;;8.13;67.60
77855;BME280;67046;50.088;14.336;2023-04-25T00:42:30;96784.29;;;8.12;67.71
77855;BME280;67046;50.088;14.336;2023-04-25T00:43:02;96785.80;;;8.10;67.58
77855;BME280;67046;50.088;14.336;2023-04-25T00:43:34;96786.26;;;8.09;67.60
77855;BME280;67046;50.088;14.336;2023-04-25T00:44:08;96790.08;;;8.09;68.00
77855;BME280;67046;50.088;14.336;2023-04-25T00:44:43;96790.01;;;8.07;67.70
77855;BME280;67046;50.088;14.336;2023-04-25T00:45:17;96790.45;;;8.05;68.01
77855;BME280;67046;50.088;14.336;2023-04-25T00:45:48;96789.45;;;8.05;67.69
77855;BME280;67046;50.088;14.336;2023-04-25T00:46:21;96789.38;;;8.04;67.99
77855;BME280;67046;50.088;14.336;2023-04-25T00:46:53;96791.30;;;8.03;68.10
77855;BME280;67046;50.088;14.336;2023-04-25T00:47:25;96789.63;;;8.02;67.93
77855;BME280;67046;50.088;14.336;2023-04-25T00:47:57;96790.14;;;8.03;67.91
77855;BME280;67046;50.088;14.336;2023-04-25T00:48:28;96791.46;;;8.02;68.26
77855;BME280;67046;50.088;14.336;2023-04-25T00:48:59;96797.51;;;8.01;68.05
77855;BME280;67046;50.088;14.336;2023-04-25T00:49:30;96789.69;;;8.00;68.28
77855;BME280;67046;50.088;14.336;2023-04-25T00:50:02;96789.39;;;7.99;68.10
77855;BME280;67046;50.088;14.336;2023-04-25T00:50:34;96792.60;;;7.98;68.28
77855;BME280;67046;50.088;14.336;2023-04-25T00:51:06;96787.84;;;7.97;68.11
77855;BME280;67046;50.088;14.336;2023-04-25T00:51:38;96788.45;;;7.96;68.52
77855;BME280;67046;50.088;14.336;2023-04-25T00:52:10;96786.88;;;7.95;68.60
77855;BME280;67046;50.088;14.336;2023-04-25T00:52:44;96787.90;;;7.95;68.50
77855;BME280;67046;50.088;14.336;2023-04-25T00:53:16;96788.09;;;7.93;68.67
77855;BME280;67046;50.088;14.336;2023-04-25T00:53:49;96785.80;;;7.91;68.60
77855;BME280;67046;50.088;14.336;2023-04-25T00:54:21;96785.16;;;7.91;68.56
77855;BME280;67046;50.088;14.336;2023-04-25T00:54:52;96787.85;;;7.91;68.70
77855;BME280;67046;50.088;14.336;2023-04-25T00:55:24;96784.73;;;7.90;68.64
77855;BME280;67046;50.088;14.336;2023-04-25T00:55:56;96785.55;;;7.89;68.70
77855;BME280;67046;50.088;14.336;2023-04-25T00:56:27;96783.13;;;7.89;68.93
77855;BME280;67046;50.088;14.336;2023-04-25T00:56:59;96787.28;;;7.89;69.16
77855;BME280;67046;50.088;14.336;2023-04-25T00:57:31;96786.59;;;7.88;69.08
77855;BME280;67046;50.088;14.336;2023-04-25T00:58:03;96779.35;;;7.87;68.71
77855;BME280;67046;50.088;14.336;2023-04-25T00:58:34;96779.60;;;7.86;68.79
77855;BME280;67046;50.088;14.336;2023-04-25T00:59:06;96781.14;;;7.85;69.35
77855;BME280;67046;50.088;14.336;2023-04-25T00:59:38;96777.09;;;7.86;68.80
77855;BME280;67046;50.088;14.336;2023-04-25T01:00:10;96780.38;;;7.84;68.77
77855;BME280;67046;50.088;14.336;2023-04-25T01:00:42;96776.30;;;7.84;68.82
77855;BME280;67046;50.088;14.336;2023-04-25T01:01:13;96779.08;;;7.83;69.37
77855;BME280;67046;50.088;14.336;2023-04-25T01:01:45;96781.81;;;7.82;69.03
77855;BME280;67046;50.088;14.336;2023-04-25T01:02:17;96783.48;;;7.82;69.00
77855;BME280;67046;50.088;14.336;2023-04-25T01:02:48;96778.68;;;7.81;69.20
77855;BME280;67046;50.088;14.336;2023-04-25T01:03:21;96780.83;;;7.81;69.00
77855;BME280;67046;50.088;14.336;2023-04-25T01:03:53;96778.98;;;7.80;69.11
77855;BME280;67046;50.088;14.336;2023-04-25T01:04:27;96777.61;;;7.80;68.89
77855;BME280;67046;50.088;14.336;2023-04-25T01:04:58;96777.87;;;7.79;69.23
77855;BME280;67046;50.088;14.336;2023-04-25T01:05:29;96774.01;;;7.78;69.18
77855;BME280;67046;50.088;14.336;2023-04-25T01:06:02;96777.16;;;7.77;69.33
77855;BME280;67046;50.088;14.336;2023-04-25T01:06:33;96769.98;;;7.77;69.15
77855;BME280;67046;50.088;14.336;2023-04-25T01:07:05;96775.56;;;7.76;69.45
77855;BME280;67046;50.088;14.336;2023-04-25T01:07:36;96771.66;;;7.76;69.48
77855;BME280;67046;50.088;14.336;2023-04-25T01:08:09;96771.23;;;7.76;69.54
77855;BME280;67046;50.088;14.336;2023-04-25T01:08:41;96772.97;;;7.76;69.44
77855;BME280;67046;50.088;14.336;2023-04-25T01:09:12;96769.93;;;7.76;69.46
77855;BME280;67046;50.088;14.336;2023-04-25T01:09:45;96772.77;;;7.76;69.47
77855;BME280;67046;50.088;14.336;2023-04-25T01:10:16;96773.98;;;7.76;69.43
77855;BME280;67046;50.088;14.336;2023-04-25T01:10:48;96776.02;;;7.76;69.45
77855;BME280;67046;50.088;14.336;2023-04-25T01:11:19;96773.38;;;7.75;69.62
77855;BME280;67046;50.088;14.336;2023-04-25T01:11:51;96775.23;;;7.73;69.53
77855;BME280;67046;50.088;14.336;2023-04-25T01:12:23;96770.52;;;7.71;69.60
77855;BME280;67046;50.088;14.336;2023-04-25T01:12:54;96776.25;;;7.71;69.77
77855;BME280;67046;50.088;14.336;2023-04-25T01:13:26;96773.64;;;7.70;69.63
77855;BME280;67046;50.088;14.336;2023-04-25T01:13:58;96775.58;;;7.68;70.02
77855;BME280;67046;50.088;14.336;2023-04-25T01:14:29;96774.55;;;7.67;69.95
77855;BME280;67046;50.088;14.336;2023-04-25T01:15:01;96774.30;;;7.67;69.83
77855;BME280;67046;50.088;14.336;2023-04-25T01:15:32;96775.39;;;7.66;69.65
77855;BME280;67046;50.088;14.336;2023-04-25T01:16:04;96777.29;;;7.67;69.77
77855;BME280;67046;50.088;14.336;2023-04-25T01:16:35;96779.12;;;7.66;69.63
77855;BME280;67046;50.088;14.336;2023-04-25T01:17:09;96774.09;;;7.64;69.81
77855;BME280;67046;50.088;14.336;2023-04-25T01:17:40;96771.50;;;7.64;69.69
77855;BME280;67046;50.088;14.336;2023-04-25T01:18:14;96774.86;;;7.64;69.84
77855;BME280;67046;50.088;14.336;2023-04-25T01:18:45;96770.81;;;7.64;69.38
77855;BME280;67046;50.088;14.336;2023-04-25T01:19:18;96772.83;;;7.61;69.70
77855;BME280;67046;50.088;14.336;2023-04-25T01:19:50;96771.03;;;7.61;69.74
77855;BME280;67046;50.088;14.336;2023-04-25T01:20:22;96773.40;;;7.61;70.42
77855;BME280;67046;50.088;14.336;2023-04-25T01:21:09;96771.29;;;7.60;70.18
77855;BME280;67046;50.088;14.336;2023-04-25T01:21:41;96767.61;;;7.59;70.27
77855;BME280;67046;50.088;14.336;2023-04-25T01:22:14;96768.91;;;7.57;70.05
77855;BME280;67046;50.088;14.336;2023-04-25T01:22:46;96769.10;;;7.56;70.29
77855;BME280;67046;50.088;14.336;2023-04-25T01:23:22;96767.52;;;7.56;70.20
77855;BME280;67046;50.088;14.336;2023-04-25T01:23:54;96766.67;;;7.55;70.47
77855;BME280;67046;50.088;14.336;2023-04-25T01:24:26;96763.58;;;7.53;70.71
77855;BME280;67046;50.088;14.336;2023-04-25T01:24:57;96765.61;;;7.52;70.39
77855;BME280;67046;50.088;14.336;2023-04-25T01:25:30;96764.18;;;7.51;70.56
77855;BME280;67046;50.088;14.336;2023-04-25T01:26:02;96763.27;;;7.50;70.60
77855;BME280;67046;50.088;14.336;2023-04-25T01:26:34;96761.81;;;7.51;70.20
77855;BME280;67046;50.088;14.336;2023-04-25T01:27:06;96761.81;;;7.51;70.51
77855;BME280;67046;50.088;14.336;2023-04-25T01:27:38;96763.16;;;7.50;70.39
77855;BME280;67046;50.088;14.336;2023-04-25T01:28:10;96762.40;;;7.49;70.30
77855;BME280;67046;50.088;14.336;2023-04-25T01:28:42;96759.06;;;7.47;70.54
77855;BME280;67046;50.088;14.336;2023-04-25T01:29:13;96763.73;;;7.46;70.13
77855;BME280;67046;50.088;14.336;2023-04-25T01:29:45;96761.58;;;7.47;70.19
77855;BME280;67046;50.088;14.336;2023-04-25T01:30:17;96762.38;;;7.47;70.14
77855;BME280;67046;50.088;14.336;2023-04-25T01:30:48;96758.27;;;7.47;70.76
77855;BME280;67046;50.088;14.336;2023-04-25T01:31:21;96757.69;;;7.47;70.55
77855;BME280;67046;50.088;14.336;2023-04-25T01:31:53;96760.58;;;7.47;70.50
77855;BME280;67046;50.088;14.336;2023-04-25T01:32:24;96758.58;;;7.47;70.78
77855;BME280;67046;50.088;14.336;2023-04-25T01:32:57;96757.22;;;7.46;70.28
77855;BME280;67046;50.088;14.336;2023-04-25T01:33:29;96759.69;;;7.46;70.68
77855;BME280;67046;50.088;14.336;2023-04-25T01:34:00;96759.73;;;7.46;70.60
77855;BME280;67046;50.088;14.336;2023-04-25T01:34:32;96762.25;;;7.46;70.66
77855;BME280;67046;50.088;14.336;2023-04-25T01:35:08;96759.66;;;7.46;70.46
77855;BME280;67046;50.088;14.336;2023-04-25T01:35:40;96759.44;;;7.45;70.75
77855;BME280;67046;50.088;14.336;2023-04-25T01:36:12;96760.06;;;7.44;70.54
77855;BME280;67046;50.088;14.336;2023-04-25T01:36:44;96760.47;;;7.44;70.81
77855;BME280;67046;50.088;14.336;2023-04-25T01:37:16;96756.25;;;7.43;70.87
77855;BME280;67046;50.088;14.336;2023-04-25T01:37:49;96762.56;;;7.43;71.02
77855;BME280;67046;50.088;14.336;2023-04-25T01:38:20;96763.39;;;7.42;70.67
77855;BME280;67046;50.088;14.336;2023-04-25T01:38:52;96758.59;;;7.41;70.83
77855;BME280;67046;50.088;14.336;2023-04-25T01:39:24;96759.02;;;7.41;71.01
77855;BME280;67046;50.088;14.336;2023-04-25T01:39:55;96760.75;;;7.41;70.84
77855;BME280;67046;50.088;14.336;2023-04-25T01:40:27;96761.84;;;7.41;71.31
77855;BME280;67046;50.088;14.336;2023-04-25T01:40:59;96758.02;;;7.39;71.24
77855;BME280;67046;50.088;14.336;2023-04-25T01:41:30;96761.64;;;7.39;71.43
77855;BME280;67046;50.088;14.336;2023-04-25T01:42:02;96756.83;;;7.37;71.50
77855;BME280;67046;50.088;14.336;2023-04-25T01:42:35;96760.55;;;7.35;71.10
77855;BME280;67046;50.088;14.336;2023-04-25T01:43:08;96759.27;;;7.35;71.14
77855;BME280;67046;50.088;14.336;2023-04-25T01:43:41;96759.23;;;7.34;71.32
77855;BME280;67046;50.088;14.336;2023-04-25T01:44:14;96763.54;;;7.33;71.58
77855;BME280;67046;50.088;14.336;2023-04-25T01:44:45;96762.32;;;7.32;71.46
77855;BME280;67046;50.088;14.336;2023-04-25T01:45:17;96757.64;;;7.32;71.28
77855;BME280;67046;50.088;14.336;2023-04-25T01:45:49;96762.67;;;7.32;71.52
77855;BME280;67046;50.088;14.336;2023-04-25T01:46:21;96758.84;;;7.32;71.06
77855;BME280;67046;50.088;14.336;2023-04-25T01:46:53;96757.27;;;7.32;71.80
77855;BME280;67046;50.088;14.336;2023-04-25T01:47:24;96759.05;;;7.32;71.39
77855;BME280;67046;50.088;14.336;2023-04-25T01:47:56;96760.42;;;7.32;72.03
77855;BME280;67046;50.088;14.336;2023-04-25T01:48:30;96756.07;;;7.30;71.34
77855;BME280;67046;50.088;14.336;2023-04-25T01:49:02;96758.42;;;7.30;71.80
77855;BME280;67046;50.088;14.336;2023-04-25T01:49:33;96756.23;;;7.30;71.80
77855;BME280;67046;50.088;14.336;2023-04-25T01:50:06;96759.36;;;7.29;72.06
77855;BME280;67046;50.088;14.336;2023-04-25T01:50:39;96761.18;;;7.28;72.09
77855;BME280;67046;50.088;14.336;2023-04-25T01:51:11;96757.97;;;7.27;72.05
77855;BME280;67046;50.088;14.336;2023-04-25T01:51:43;96759.85;;;7.27;71.87
77855;BME280;67046;50.088;14.336;2023-04-25T01:52:15;96754.40;;;7.26;72.14
77855;BME280;67046;50.088;14.336;2023-04-25T01:52:47;96759.67;;;7.23;71.91
77855;BME280;67046;50.088;14.336;2023-04-25T01:53:18;96760.14;;;7.22;72.07
77855;BME280;67046;50.088;14.336;2023-04-25T01:53:49;96755.45;;;7.22;72.05
77855;BME280;67046;50.088;14.336;2023-04-25T01:54:21;96760.13;;;7.23;72.32
77855;BME280;67046;50.088;14.336;2023-04-25T01:54:53;96760.02;;;7.22;72.02
77855;BME280;67046;50.088;14.336;2023-04-25T01:55:24;96753.02;;;7.22;72.43
77855;BME280;67046;50.088;14.336;2023-04-25T01:55:56;96755.13;;;7.22;72.21
77855;BME280;67046;50.088;14.336;2023-04-25T01:56:31;96755.08;;;7.22;72.01
77855;BME280;67046;50.088;14.336;2023-04-25T01:57:02;96758.77;;;7.22;72.28
77855;BME280;67046;50.088;14.336;2023-04-25T01:57:34;96758.91;;;7.22;72.27
77855;BME280;67046;50.088;14.336;2023-04-25T01:58:05;96759.23;;;7.23;72.35
77855;BME280;67046;50.088;14.336;2023-04-25T01:58:43;96760.04;;;7.23;72.60
77855;BME280;67046;50.088;14.336;2023-04-25T01:59:15;96758.65;;;7.22;72.36
77855;BME280;67046;50.088;14.336;2023-04-25T01:59:46;96758.70;;;7.22;72.61
77855;BME280;67046;50.088;14.336;2023-04-25T02:00:18;96757.45;;;7.22;72.70
77855;BME280;67046;50.088;14.336;2023-04-25T02:00:49;96762.60;;;7.21;72.57
77855;BME280;67046;50.088;14.336;2023-04-25T02:01:20;96757.06;;;7.21;72.68
77855;BME280;67046;50.088;14.336;2023-04-25T02:01:52;96757.99;;;7.21;72.40
77855;BME280;67046;50.088;14.336;2023-04-25T02:02:23;96757.22;;;7.21;72.51
77855;BME280;67046;50.088;14.336;2023-04-25T02:02:58;96754.02;;;7.21;72.54
77855;BME280;67046;50.088;14.336;2023-04-25T02:03:31;96757.54;;;7.21;72.56
77855;BME280;67046;50.088;14.336;2023-04-25T02:04:04;96755.73;;;7.20;72.91
77855;BME280;67046;50.088;14.336;2023-04-25T02:04:35;96754.96;;;7.21;72.48
77855;BME280;67046;50.088;14.336;2023-04-25T02:05:07;96753.27;;;7.20;73.03
77855;BME280;67046;50.088;14.336;2023-04-25T02:05:39;96751.81;;;7.21;72.75
77855;BME280;67046;50.088;14.336;2023-04-25T02:06:11;96755.01;;;7.21;72.65
77855;BME280;67046;50.088;14.336;2023-04-25T02:06:42;96756.58;;;7.21;72.71
77855;BME280;67046;50.088;14.336;2023-04-25T02:07:13;96753.22;;;7.21;72.56
77855;BME280;67046;50.088;14.336;2023-04-25T02:07:44;96752.98;;;7.21;72.81
77855;BME280;67046;50.088;14.336;2023-04-25T02:08:16;96754.22;;;7.21;72.81
77855;BME280;67046;50.088;14.336;2023-04-25T02:08:48;96757.86;;;7.21;72.42
77855;BME280;67046;50.088;14.336;2023-04-25T02:09:19;96750.65;;;7.22;72.63
77855;BME280;67046;50.088;14.336;2023-04-25T02:09:51;96748.45;;;7.22;72.83
77855;BME280;67046;50.088;14.336;2023-04-25T02:10:22;96746.30;;;7.22;72.90
77855;BME280;67046;50.088;14.336;2023-04-25T02:10:54;96747.97;;;7.22;72.64
77855;BME280;67046;50.088;14.336;2023-04-25T02:11:25;96751.19;;;7.19;72.95
77855;BME280;67046;50.088;14.336;2023-04-25T02:11:57;96750.08;;;7.19;72.82
77855;BME280;67046;50.088;14.336;2023-04-25T02:12:29;96750.90;;;7.18;72.77
77855;BME280;67046;50.088;14.336;2023-04-25T02:13:01;96748.02;;;7.18;72.93
77855;BME280;67046;50.088;14.336;2023-04-25T02:13:33;96747.55;;;7.19;72.91
77855;BME280;67046;50.088;14.336;2023-04-25T02:14:04;96744.91;;;7.19;72.83
77855;BME280;67046;50.088;14.336;2023-04-25T02:14:35;96746.41;;;7.19;72.71
77855;BME280;67046;50.088;14.336;2023-04-25T02:15:07;96747.14;;;7.19;72.43
77855;BME280;67046;50.088;14.336;2023-04-25T02:15:38;96745.81;;;7.19;72.74
77855;BME280;67046;50.088;14.336;2023-04-25T02:16:09;96744.34;;;7.18;72.98
77855;BME280;67046;50.088;14.336;2023-04-25T02:16:41;96742.29;;;7.18;72.97
77855;BME280;67046;50.088;14.336;2023-04-25T02:17:14;96744.00;;;7.17;72.74
77855;BME280;67046;50.088;14.336;2023-04-25T02:17:46;96741.73;;;7.17;72.83
77855;BME280;67046;50.088;14.336;2023-04-25T02:18:18;96740.42;;;7.14;72.84
77855;BME280;67046;50.088;14.336;2023-04-25T02:18:49;96740.36;;;7.13;72.92
77855;BME280;67046;50.088;14.336;2023-04-25T02:19:23;96738.73;;;7.14;72.60
77855;BME280;67046;50.088;14.336;2023-04-25T02:19:54;96740.75;;;7.14;73.12
77855;BME280;67046;50.088;14.336;2023-04-25T02:20:26;96740.17;;;7.15;72.92
77855;BME280;67046;50.088;14.336;2023-04-25T02:20:59;96744.70;;;7.15;72.81
77855;BME280;67046;50.088;14.336;2023-04-25T02:21:32;96739.40;;;7.15;72.90
77855;BME280;67046;50.088;14.336;2023-04-25T02:22:06;96738.85;;;7.14;72.77
77855;BME280;67046;50.088;14.336;2023-04-25T02:22:38;96741.95;;;7.14;72.84
77855;BME280;67046;50.088;14.336;2023-04-25T02:23:09;96737.06;;;7.14;73.25
77855;BME280;67046;50.088;14.336;2023-04-25T02:23:41;96739.89;;;7.14;72.63
77855;BME280;67046;50.088;14.336;2023-04-25T02:24:12;96738.58;;;7.14;72.86
77855;BME280;67046;50.088;14.336;2023-04-25T02:24:43;96736.95;;;7.14;72.62
77855;BME280;67046;50.088;14.336;2023-04-25T02:25:15;96736.42;;;7.14;72.55
77855;BME280;67046;50.088;14.336;2023-04-25T02:25:47;96739.20;;;7.14;73.00
77855;BME280;67046;50.088;14.336;2023-04-25T02:26:18;96732.97;;;7.11;72.54
77855;BME280;67046;50.088;14.336;2023-04-25T02:26:49;96734.89;;;7.10;72.56
77855;BME280;67046;50.088;14.336;2023-04-25T02:27:20;96735.84;;;7.11;72.94
77855;BME280;67046;50.088;14.336;2023-04-25T02:27:52;96736.16;;;7.11;72.73
77855;BME280;67046;50.088;14.336;2023-04-25T02:28:24;96734.38;;;7.11;72.93
77855;BME280;67046;50.088;14.336;2023-04-25T02:28:56;96732.91;;;7.12;72.51
77855;BME280;67046;50.088;14.336;2023-04-25T02:29:29;96732.55;;;7.12;72.53
77855;BME280;67046;50.088;14.336;2023-04-25T02:30:00;96733.67;;;7.13;72.51
77855;BME280;67046;50.088;14.336;2023-04-25T02:30:32;96733.61;;;7.12;72.75
77855;BME280;67046;50.088;14.336;2023-04-25T02:31:03;96734.13;;;7.12;72.57
77855;BME280;67046;50.088;14.336;2023-04-25T02:31:34;96734.41;;;7.12;72.71
77855;BME280;67046;50.088;14.336;2023-04-25T02:32:06;96735.11;;;7.13;72.91
77855;BME280;67046;50.088;14.336;2023-04-25T02:32:38;96734.79;;;7.13;72.29
77855;BME280;67046;50.088;14.336;2023-04-25T02:33:10;96732.67;;;7.13;72.58
77855;BME280;67046;50.088;14.336;2023-04-25T02:33:41;96731.52;;;7.13;72.46
77855;BME280;67046;50.088;14.336;2023-04-25T02:34:12;96736.05;;;7.13;72.92
77855;BME280;67046;50.088;14.336;2023-04-25T02:34:43;96733.55;;;7.12;72.42
77855;BME280;67046;50.088;14.336;2023-04-25T02:35:15;96735.49;;;7.12;72.76
77855;BME280;67046;50.088;14.336;2023-04-25T02:35:47;96732.08;;;7.11;72.71
77855;BME280;67046;50.088;14.336;2023-04-25T02:36:18;96734.63;;;7.11;72.97
77855;BME280;67046;50.088;14.336;2023-04-25T02:36:50;96736.42;;;7.11;72.70
77855;BME280;67046;50.088;14.336;2023-04-25T02:37:24;96733.94;;;7.10;72.63
77855;BME280;67046;50.088;14.336;2023-04-25T02:37:55;96733.59;;;7.08;72.75
77855;BME280;67046;50.088;14.336;2023-04-25T02:38:26;96738.14;;;7.07;72.65
77855;BME280;67046;50.088;14.336;2023-04-25T02:38:57;96734.91;;;7.06;72.77
77855;BME280;67046;50.088;14.336;2023-04-25T02:39:29;96733.90;;;7.05;73.11
77855;BME280;67046;50.088;14.336;2023-04-25T02:40:00;96737.94;;;7.04;73.00
77855;BME280;67046;50.088;14.336;2023-04-25T02:40:32;96738.17;;;7.04;73.07
77855;BME280;67046;50.088;14.336;2023-04-25T02:41:03;96736.45;;;7.01;72.98
77855;BME280;67046;50.088;14.336;2023-04-25T02:41:34;96739.10;;;6.99;73.08
77855;BME280;67046;50.088;14.336;2023-04-25T02:42:05;96738.53;;;7.00;72.81
77855;BME280;67046;50.088;14.336;2023-04-25T02:42:37;96741.64;;;7.00;73.14
77855;BME280;67046;50.088;14.336;2023-04-25T02:43:08;96743.13;;;7.01;73.11
77855;BME280;67046;50.088;14.336;2023-04-25T02:43:39;96740.31;;;6.99;72.89
77855;BME280;67046;50.088;14.336;2023-04-25T02:44:11;96742.14;;;6.99;72.83
77855;BME280;67046;50.088;14.336;2023-04-25T02:44:42;96744.61;;;6.99;73.15
77855;BME280;67046;50.088;14.336;2023-04-25T02:45:13;96738.14;;;6.98;73.26
77855;BME280;67046;50.088;14.336;2023-04-25T02:45:45;96741.70;;;6.97;73.02
77855;BME280;67046;50.088;14.336;2023-04-25T02:46:16;96741.17;;;6.97;73.16
77855;BME280;67046;50.088;14.336;2023-04-25T02:46:47;96738.34;;;6.98;73.23
77855;BME280;67046;50.088;14.336;2023-04-25T02:47:19;96734.86;;;6.97;73.08
77855;BME280;67046;50.088;14.336;2023-04-25T02:47:50;96740.27;;;6.97;73.26
77855;BME280;67046;50.088;14.336;2023-04-25T02:48:21;96739.19;;;6.98;73.07
77855;BME280;67046;50.088;14.336;2023-04-25T02:48:53;96738.50;;;6.98;72.94
77855;BME280;67046;50.088;14.336;2023-04-25T02:49:24;96738.23;;;6.97;73.45